createdAt,value
2017-09-12T00:00:51.377Z,0
2017-09-12T00:01:51.434Z,0
2017-09-12T00:02:50.670Z,0
2017-09-12T00:03:51.336Z,0
2017-09-12T00:04:50.667Z,0
2017-09-12T00:05:50.640Z,0
2017-09-12T00:06:50.638Z,0
2017-09-12T00:07:50.957Z,0
2017-09-12T00:08:50.613Z,0
2017-09-12T00:09:51.268Z,0
2017-09-12T00:10:50.936Z,0
2017-09-12T00:11:51.346Z,0
2017-09-12T00:12:51.244Z,0
2017-09-12T00:13:50.917Z,0
2017-09-12T00:14:51.229Z,0
2017-09-12T00:15:50.875Z,0
2017-09-12T00:16:50.862Z,0
2017-09-12T00:17:50.848Z,0
2017-09-12T00:18:50.507Z,0
2017-09-12T00:19:51.167Z,0
2017-09-12T00:20:50.508Z,0
2017-09-12T00:21:50.808Z,0
2017-09-12T00:22:50.789Z,0
2017-09-12T00:23:51.113Z,0
2017-09-12T00:24:51.123Z,0
2017-09-12T00:25:50.433Z,0
2017-09-12T00:26:50.451Z,0
2017-09-12T00:27:50.756Z,0
2017-09-12T00:28:50.733Z,0
2017-09-12T00:29:50.719Z,0
2017-09-12T00:30:50.712Z,0
2017-09-12T00:31:50.709Z,0
2017-09-12T00:32:51.018Z,0
2017-09-12T00:33:51.007Z,0
2017-09-12T00:34:50.669Z,0
2017-09-12T00:35:50.702Z,0
2017-09-12T00:36:50.349Z,0
2017-09-12T00:37:50.661Z,0
2017-09-12T00:38:50.967Z,0
2017-09-12T00:39:50.286Z,0
2017-09-12T00:40:50.643Z,0
2017-09-12T00:41:50.600Z,0
2017-09-12T00:42:50.594Z,0
2017-09-12T00:43:50.574Z,0
2017-09-12T00:44:50.563Z,0
2017-09-12T00:45:50.580Z,0
2017-09-12T00:46:50.913Z,0
2017-09-12T00:47:50.898Z,0
2017-09-12T00:48:50.200Z,0
2017-09-12T00:49:50.554Z,0
2017-09-12T00:50:51.071Z,0
2017-09-12T00:51:51.549Z,0
2017-09-12T00:52:51.948Z,0
2017-09-12T00:53:51.168Z,0
2017-09-12T00:54:51.337Z,0
2017-09-12T00:55:51.040Z,0
2017-09-12T00:56:51.727Z,0
2017-09-12T00:57:51.473Z,0
2017-09-12T00:58:51.131Z,0
2017-09-12T00:59:51.314Z,0
2017-09-12T01:00:50.521Z,0
2017-09-12T01:01:50.715Z,0
2017-09-12T01:02:51.163Z,0
2017-09-12T01:03:51.413Z,0
2017-09-12T01:04:51.492Z,0
2017-09-12T01:05:50.741Z,0
2017-09-12T01:06:50.549Z,0
2017-09-12T01:07:50.522Z,0
2017-09-12T01:08:50.469Z,0
2017-09-12T01:09:50.133Z,0
2017-09-12T01:10:50.161Z,0
2017-09-12T01:11:50.083Z,0
2017-09-12T01:12:50.442Z,0
2017-09-12T01:13:50.076Z,0
2017-09-12T01:14:50.403Z,0
2017-09-12T01:15:50.822Z,0
2017-09-12T01:16:50.360Z,0
2017-09-12T01:17:50.799Z,0
2017-09-12T01:18:50.398Z,0
2017-09-12T01:19:51.200Z,0
2017-09-12T01:20:49.877Z,0
2017-09-12T01:21:51.641Z,0
2017-09-12T01:22:51.164Z,0
2017-09-12T01:23:51.492Z,0
2017-09-12T01:24:51.873Z,0
2017-09-12T01:25:51.267Z,0
2017-09-12T01:26:51.118Z,0
2017-09-12T01:27:51.090Z,0
2017-09-12T01:28:51.765Z,0
2017-09-12T01:29:51.715Z,0
2017-09-12T01:30:51.447Z,0
2017-09-12T01:31:51.393Z,0
2017-09-12T01:32:51.480Z,0
2017-09-12T01:33:52.287Z,0
2017-09-12T01:34:51.065Z,0
2017-09-12T01:35:50.739Z,0
2017-09-12T01:36:50.363Z,0
2017-09-12T01:37:49.714Z,0
2017-09-12T01:38:50.348Z,0
2017-09-12T01:39:50.017Z,0
2017-09-12T01:40:49.666Z,0
2017-09-12T01:41:49.658Z,0
2017-09-12T01:42:49.965Z,0
2017-09-12T01:43:50.275Z,0
2017-09-12T01:44:49.956Z,0
2017-09-12T01:45:49.946Z,0
2017-09-12T01:46:49.618Z,0
2017-09-12T01:47:49.594Z,0
2017-09-12T01:48:50.602Z,0
2017-09-12T01:49:49.936Z,0
2017-09-12T01:50:49.956Z,0
2017-09-12T01:51:49.964Z,0
2017-09-12T01:52:49.912Z,0
2017-09-12T01:53:49.895Z,0
2017-09-12T01:54:50.004Z,0
2017-09-12T01:55:49.906Z,0
2017-09-12T01:56:49.863Z,0
2017-09-12T01:57:49.854Z,0
2017-09-12T01:58:50.179Z,0
2017-09-12T01:59:50.140Z,0
2017-09-12T02:00:49.834Z,0
2017-09-12T02:01:50.145Z,0
2017-09-12T02:02:49.497Z,0
2017-09-12T02:03:49.839Z,0
2017-09-12T02:04:50.085Z,0
2017-09-12T02:05:50.103Z,0
2017-09-12T02:06:49.727Z,0
2017-09-12T02:07:49.730Z,0
2017-09-12T02:08:49.717Z,0
2017-09-12T02:09:49.356Z,0
2017-09-12T02:10:49.676Z,0
2017-09-12T02:11:49.337Z,0
2017-09-12T02:12:49.386Z,0
2017-09-12T02:13:49.665Z,0
2017-09-12T02:14:50.290Z,0
2017-09-12T02:15:49.953Z,0
2017-09-12T02:16:49.960Z,0
2017-09-12T02:17:49.608Z,0
2017-09-12T02:18:49.264Z,0
2017-09-12T02:19:49.911Z,0
2017-09-12T02:20:49.245Z,0
2017-09-12T02:21:49.896Z,0
2017-09-12T02:22:49.881Z,0
2017-09-12T02:23:49.908Z,0
2017-09-12T02:24:49.535Z,0
2017-09-12T02:25:49.851Z,0
2017-09-12T02:26:49.230Z,0
2017-09-12T02:27:49.842Z,0
2017-09-12T02:28:49.842Z,0
2017-09-12T02:29:49.518Z,0
2017-09-12T02:30:49.478Z,0
2017-09-12T02:31:50.001Z,0
2017-09-12T02:32:49.796Z,0
2017-09-12T02:33:49.811Z,0
2017-09-12T02:34:49.805Z,0
2017-09-12T02:35:49.420Z,0
2017-09-12T02:36:49.416Z,0
2017-09-12T02:37:49.755Z,0
2017-09-12T02:38:49.070Z,0
2017-09-12T02:39:49.729Z,0
2017-09-12T02:40:49.710Z,0
2017-09-12T02:41:49.036Z,0
2017-09-12T02:42:50.053Z,0
2017-09-12T02:43:50.008Z,0
2017-09-12T02:44:49.344Z,0
2017-09-12T02:45:49.326Z,0
2017-09-12T02:46:49.313Z,0
2017-09-12T02:47:49.003Z,0
2017-09-12T02:48:49.307Z,0
2017-09-12T02:49:49.622Z,0
2017-09-12T02:50:49.295Z,0
2017-09-12T02:51:49.599Z,0
2017-09-12T02:52:49.260Z,0
2017-09-12T02:53:49.905Z,0
2017-09-12T02:54:49.564Z,0
2017-09-12T02:55:49.229Z,0
2017-09-12T02:56:49.544Z,0
2017-09-12T02:57:49.262Z,0
2017-09-12T02:58:49.526Z,0
2017-09-12T02:59:48.868Z,0
2017-09-12T03:00:49.212Z,0
2017-09-12T03:01:49.198Z,0
2017-09-12T03:02:49.507Z,0
2017-09-12T03:03:49.151Z,0
2017-09-12T03:04:48.816Z,0
2017-09-12T03:05:49.133Z,0
2017-09-12T03:06:50.146Z,0
2017-09-12T03:07:49.779Z,0
2017-09-12T03:08:49.446Z,0
2017-09-12T03:09:49.089Z,0
2017-09-12T03:10:49.101Z,0
2017-09-12T03:11:49.073Z,0
2017-09-12T03:12:48.728Z,0
2017-09-12T03:13:48.739Z,0
2017-09-12T03:14:49.369Z,0
2017-09-12T03:15:49.377Z,0
2017-09-12T03:16:49.021Z,0
2017-09-12T03:17:49.030Z,0
2017-09-12T03:18:49.004Z,0
2017-09-12T03:19:48.993Z,0
2017-09-12T03:20:49.313Z,0
2017-09-12T03:21:48.644Z,0
2017-09-12T03:22:49.295Z,0
2017-09-12T03:23:48.973Z,0
2017-09-12T03:24:48.941Z,0
2017-09-12T03:25:48.977Z,0
2017-09-12T03:26:48.924Z,0
2017-09-12T03:27:48.590Z,0
2017-09-12T03:28:48.577Z,0
2017-09-12T03:29:48.564Z,0
2017-09-12T03:30:48.897Z,0
2017-09-12T03:31:48.558Z,0
2017-09-12T03:32:49.245Z,0
2017-09-12T03:33:49.545Z,0
2017-09-12T03:34:48.519Z,0
2017-09-12T03:35:49.538Z,0
2017-09-12T03:36:48.853Z,0
2017-09-12T03:37:48.823Z,0
2017-09-12T03:38:49.435Z,0
2017-09-12T03:39:48.799Z,0
2017-09-12T03:40:48.475Z,0
2017-09-12T03:41:48.452Z,0
2017-09-12T03:42:49.118Z,0
2017-09-12T03:43:48.451Z,0
2017-09-12T03:44:49.080Z,0
2017-09-12T03:45:48.414Z,0
2017-09-12T03:46:48.422Z,0
2017-09-12T03:47:49.389Z,0
2017-09-12T03:48:49.365Z,0
2017-09-12T03:49:48.719Z,0
2017-09-12T03:50:48.377Z,0
2017-09-12T03:51:49.367Z,0
2017-09-12T03:52:49.013Z,0
2017-09-12T03:53:49.325Z,0
2017-09-12T03:54:48.653Z,0
2017-09-12T03:55:48.326Z,0
2017-09-12T03:56:49.320Z,0
2017-09-12T03:57:48.637Z,0
2017-09-12T03:58:48.612Z,0
2017-09-12T03:59:48.627Z,0
2017-09-12T04:00:48.616Z,0
2017-09-12T04:01:48.262Z,0
2017-09-12T04:02:48.945Z,0
2017-09-12T04:03:49.247Z,0
2017-09-12T04:04:48.893Z,0
2017-09-12T04:05:48.876Z,0
2017-09-12T04:06:48.870Z,0
2017-09-12T04:07:48.858Z,0
2017-09-12T04:08:48.520Z,0
2017-09-12T04:09:48.184Z,0
2017-09-12T04:10:48.829Z,0
2017-09-12T04:11:48.819Z,0
2017-09-12T04:12:48.493Z,0
2017-09-12T04:13:48.144Z,0
2017-09-12T04:14:48.501Z,0
2017-09-12T04:15:48.790Z,0
2017-09-12T04:16:48.445Z,0
2017-09-12T04:17:48.106Z,0
2017-09-12T04:18:48.428Z,0
2017-09-12T04:19:48.429Z,0
2017-09-12T04:20:48.083Z,0
2017-09-12T04:21:48.400Z,0
2017-09-12T04:22:48.073Z,0
2017-09-12T04:23:48.708Z,0
2017-09-12T04:24:49.028Z,0
2017-09-12T04:25:48.355Z,0
2017-09-12T04:26:48.348Z,0
2017-09-12T04:27:48.334Z,0
2017-09-12T04:28:48.347Z,0
2017-09-12T04:29:48.338Z,0
2017-09-12T04:30:48.315Z,0
2017-09-12T04:31:48.000Z,0
2017-09-12T04:32:48.947Z,0
2017-09-12T04:33:48.607Z,0
2017-09-12T04:34:48.605Z,0
2017-09-12T04:35:47.931Z,0
2017-09-12T04:36:48.621Z,5
2017-09-12T04:37:48.900Z,5
2017-09-12T04:38:47.899Z,5
2017-09-12T04:39:48.566Z,5
2017-09-12T04:40:48.206Z,5
2017-09-12T04:41:48.235Z,5
2017-09-12T04:42:48.519Z,5
2017-09-12T04:43:48.210Z,5
2017-09-12T04:44:48.165Z,10
2017-09-12T04:45:48.837Z,10
2017-09-12T04:46:47.819Z,10
2017-09-12T04:47:48.497Z,10
2017-09-12T04:48:47.796Z,10
2017-09-12T04:49:48.775Z,15
2017-09-12T04:50:47.779Z,15
2017-09-12T04:51:48.787Z,15
2017-09-12T04:52:48.745Z,15
2017-09-12T04:53:48.074Z,15
2017-09-12T04:54:47.737Z,15
2017-09-12T04:55:48.058Z,15
2017-09-12T04:56:48.064Z,20
2017-09-12T04:57:47.736Z,25
2017-09-12T04:58:48.026Z,25
2017-09-12T04:59:48.366Z,25
2017-09-12T05:00:48.674Z,25
2017-09-12T05:01:48.004Z,25
2017-09-12T05:02:47.678Z,30
2017-09-12T05:03:47.668Z,30
2017-09-12T05:04:47.983Z,30
2017-09-12T05:05:47.963Z,30
2017-09-12T05:06:47.990Z,30
2017-09-12T05:07:47.938Z,35
2017-09-12T05:08:47.949Z,35
2017-09-12T05:09:48.251Z,35
2017-09-12T05:10:48.236Z,35
2017-09-12T05:11:47.899Z,40
2017-09-12T05:12:48.564Z,40
2017-09-12T05:13:48.210Z,40
2017-09-12T05:14:47.869Z,40
2017-09-12T05:15:47.857Z,40
2017-09-12T05:16:47.868Z,40
2017-09-12T05:17:47.512Z,45
2017-09-12T05:18:48.155Z,45
2017-09-12T05:19:47.823Z,45
2017-09-12T05:20:48.155Z,50
2017-09-12T05:21:47.821Z,55
2017-09-12T05:22:48.118Z,55
2017-09-12T05:23:48.136Z,55
2017-09-12T05:24:47.782Z,55
2017-09-12T05:25:47.778Z,55
2017-09-12T05:26:47.750Z,55
2017-09-12T05:27:48.088Z,55
2017-09-12T05:28:48.078Z,55
2017-09-12T05:29:47.401Z,55
2017-09-12T05:30:47.711Z,55
2017-09-12T05:31:47.698Z,55
2017-09-12T05:32:47.719Z,50
2017-09-12T05:33:47.682Z,55
2017-09-12T05:34:48.023Z,55
2017-09-12T05:35:47.672Z,55
2017-09-12T05:36:47.660Z,55
2017-09-12T05:37:47.669Z,55
2017-09-12T05:38:47.636Z,55
2017-09-12T05:39:47.318Z,60
2017-09-12T05:40:47.615Z,60
2017-09-12T05:41:47.973Z,60
2017-09-12T05:42:47.612Z,60
2017-09-12T05:43:47.266Z,65
2017-09-12T05:44:49.740Z,70
2017-09-12T05:45:47.927Z,70
2017-09-12T05:46:47.925Z,75
2017-09-12T05:47:48.248Z,75
2017-09-12T05:48:47.542Z,75
2017-09-12T05:49:47.209Z,75
2017-09-12T05:50:47.528Z,75
2017-09-12T05:51:47.194Z,75
2017-09-12T05:52:47.539Z,75
2017-09-12T05:53:47.923Z,75
2017-09-12T05:54:47.530Z,80
2017-09-12T05:55:47.824Z,85
2017-09-12T05:56:47.152Z,95
2017-09-12T05:57:47.485Z,105
2017-09-12T05:58:47.799Z,120
2017-09-12T05:59:47.146Z,135
2017-09-12T06:00:47.456Z,150
2017-09-12T06:01:47.427Z,160
2017-09-12T06:02:48.095Z,165
2017-09-12T06:03:47.084Z,160
2017-09-12T06:04:47.400Z,150
2017-09-12T06:05:48.101Z,135
2017-09-12T06:06:47.382Z,130
2017-09-12T06:07:47.721Z,130
2017-09-12T06:08:48.026Z,125
2017-09-12T06:09:47.367Z,125
2017-09-12T06:10:48.038Z,130
2017-09-12T06:11:48.007Z,145
2017-09-12T06:12:47.338Z,145
2017-09-12T06:13:47.659Z,145
2017-09-12T06:14:47.642Z,155
2017-09-12T06:15:46.979Z,160
2017-09-12T06:16:47.311Z,165
2017-09-12T06:17:47.967Z,160
2017-09-12T06:18:47.281Z,160
2017-09-12T06:19:46.951Z,160
2017-09-12T06:20:47.268Z,160
2017-09-12T06:21:46.952Z,155
2017-09-12T06:22:47.280Z,150
2017-09-12T06:23:46.941Z,140
2017-09-12T06:24:47.243Z,135
2017-09-12T06:25:47.612Z,130
2017-09-12T06:26:47.241Z,125
2017-09-12T06:27:46.882Z,120
2017-09-12T06:28:47.227Z,120
2017-09-12T06:29:46.867Z,115
2017-09-12T06:30:46.858Z,120
2017-09-12T06:31:47.182Z,120
2017-09-12T06:32:47.492Z,125
2017-09-12T06:33:47.203Z,130
2017-09-12T06:34:47.483Z,130
2017-09-12T06:35:47.471Z,130
2017-09-12T06:36:47.139Z,135
2017-09-12T06:37:47.484Z,135
2017-09-12T06:38:47.147Z,135
2017-09-12T06:39:47.111Z,140
2017-09-12T06:40:47.136Z,145
2017-09-12T06:41:46.808Z,150
2017-09-12T06:42:47.439Z,155
2017-09-12T06:43:48.100Z,160
2017-09-12T06:44:47.082Z,165
2017-09-12T06:45:47.074Z,175
2017-09-12T06:46:47.065Z,190
2017-09-12T06:47:46.730Z,200
2017-09-12T06:48:47.403Z,200
2017-09-12T06:49:47.069Z,200
2017-09-12T06:50:47.022Z,195
2017-09-12T06:51:47.010Z,190
2017-09-12T06:52:47.022Z,190
2017-09-12T06:53:47.329Z,185
2017-09-12T06:54:46.997Z,185
2017-09-12T06:55:46.652Z,190
2017-09-12T06:56:46.988Z,200
2017-09-12T06:57:46.994Z,200
2017-09-12T06:58:47.303Z,195
2017-09-12T06:59:47.298Z,190
2017-09-12T07:00:46.614Z,190
2017-09-12T07:01:46.966Z,190
2017-09-12T07:02:46.956Z,180
2017-09-12T07:03:47.268Z,170
2017-09-12T07:04:47.581Z,165
2017-09-12T07:05:46.595Z,165
2017-09-12T07:06:47.272Z,165
2017-09-12T07:07:46.887Z,170
2017-09-12T07:08:46.980Z,185
2017-09-12T07:09:46.547Z,205
2017-09-12T07:10:46.889Z,225
2017-09-12T07:11:47.186Z,250
2017-09-12T07:12:46.521Z,265
2017-09-12T07:13:46.846Z,275
2017-09-12T07:14:47.161Z,285
2017-09-12T07:15:46.830Z,295
2017-09-12T07:16:46.822Z,305
2017-09-12T07:17:46.831Z,315
2017-09-12T07:18:46.496Z,320
2017-09-12T07:19:46.800Z,320
2017-09-12T07:20:46.791Z,310
2017-09-12T07:21:46.473Z,300
2017-09-12T07:22:46.773Z,280
2017-09-12T07:23:46.448Z,275
2017-09-12T07:24:46.756Z,265
2017-09-12T07:25:46.779Z,255
2017-09-12T07:26:46.772Z,245
2017-09-12T07:27:46.419Z,240
2017-09-12T07:28:46.738Z,230
2017-09-12T07:29:46.730Z,230
2017-09-12T07:30:46.723Z,220
2017-09-12T07:31:46.721Z,205
2017-09-12T07:32:46.736Z,205
2017-09-12T07:33:46.705Z,190
2017-09-12T07:34:46.699Z,180
2017-09-12T07:35:47.018Z,185
2017-09-12T07:36:46.680Z,185
2017-09-12T07:37:46.998Z,185
2017-09-12T07:38:47.015Z,210
2017-09-12T07:39:46.716Z,200
2017-09-12T07:40:47.002Z,195
2017-09-12T07:41:46.973Z,195
2017-09-12T07:42:46.995Z,195
2017-09-12T07:43:46.630Z,190
2017-09-12T07:44:46.295Z,200
2017-09-12T07:45:46.628Z,205
2017-09-12T07:46:46.619Z,220
2017-09-12T07:47:46.615Z,220
2017-09-12T07:48:46.593Z,215
2017-09-12T07:49:46.605Z,230
2017-09-12T07:50:46.960Z,240
2017-09-12T07:51:46.578Z,260
2017-09-12T07:52:46.571Z,265
2017-09-12T07:53:46.247Z,270
2017-09-12T07:54:46.560Z,320
2017-09-12T07:55:46.894Z,340
2017-09-12T07:56:46.220Z,310
2017-09-12T07:57:46.535Z,245
2017-09-12T07:58:46.533Z,225
2017-09-12T07:59:46.201Z,230
2017-09-12T08:00:46.544Z,215
2017-09-12T08:01:46.533Z,200
2017-09-12T08:02:46.179Z,205
2017-09-12T08:03:47.175Z,205
2017-09-12T08:04:46.827Z,225
2017-09-12T08:05:46.156Z,385
2017-09-12T08:06:46.507Z,450
2017-09-12T08:07:46.802Z,375
2017-09-12T08:08:46.473Z,255
2017-09-12T08:09:46.468Z,220
2017-09-12T08:10:47.138Z,190
2017-09-12T08:11:46.781Z,160
2017-09-12T08:12:46.126Z,175
2017-09-12T08:13:46.467Z,190
2017-09-12T08:14:46.765Z,185
2017-09-12T08:15:47.107Z,185
2017-09-12T08:16:46.746Z,160
2017-09-12T08:17:46.749Z,165
2017-09-12T08:18:46.425Z,195
2017-09-12T08:19:46.070Z,220
2017-09-12T08:20:46.065Z,210
2017-09-12T08:21:46.390Z,210
2017-09-12T08:22:46.063Z,235
2017-09-12T08:23:46.389Z,265
2017-09-12T08:24:46.446Z,235
2017-09-12T08:25:46.698Z,215
2017-09-12T08:26:46.356Z,240
2017-09-12T08:27:46.356Z,210
2017-09-12T08:28:46.347Z,185
2017-09-12T08:29:46.674Z,155
2017-09-12T08:30:45.999Z,150
2017-09-12T08:31:46.323Z,195
2017-09-12T08:32:46.326Z,225
2017-09-12T08:33:46.332Z,205
2017-09-12T08:34:46.963Z,210
2017-09-12T08:35:46.667Z,205
2017-09-12T08:36:46.643Z,210
2017-09-12T08:37:46.299Z,235
2017-09-12T08:38:46.286Z,230
2017-09-12T08:39:46.275Z,250
2017-09-12T08:40:46.605Z,270
2017-09-12T08:41:46.279Z,340
2017-09-12T08:42:46.908Z,390
2017-09-12T08:43:47.234Z,340
2017-09-12T08:44:46.583Z,350
2017-09-12T08:45:46.293Z,380
2017-09-12T08:46:46.575Z,410
2017-09-12T08:47:46.543Z,360
2017-09-12T08:48:46.543Z,315
2017-09-12T08:49:46.217Z,300
2017-09-12T08:50:46.230Z,250
2017-09-12T08:51:46.071Z,315
2017-09-12T08:52:45.861Z,375
2017-09-12T08:53:46.576Z,340
2017-09-12T08:54:46.891Z,280
2017-09-12T08:55:46.825Z,335
2017-09-12T08:56:45.848Z,360
2017-09-12T08:57:46.523Z,395
2017-09-12T08:58:46.475Z,460
2017-09-12T08:59:46.536Z,420
2017-09-12T09:00:47.126Z,365
2017-09-12T09:01:46.460Z,400
2017-09-12T09:02:46.366Z,390
2017-09-12T09:03:45.797Z,360
2017-09-12T09:04:46.790Z,405
2017-09-12T09:05:46.774Z,460
2017-09-12T09:06:46.470Z,465
2017-09-12T09:07:46.444Z,440
2017-09-12T09:08:46.422Z,420
2017-09-12T09:09:46.114Z,405
2017-09-12T09:10:46.105Z,375
2017-09-12T09:11:46.101Z,335
2017-09-12T09:12:46.402Z,295
2017-09-12T09:13:45.769Z,265
2017-09-12T09:14:45.764Z,245
2017-09-12T09:15:46.396Z,230
2017-09-12T09:16:46.378Z,235
2017-09-12T09:17:46.407Z,230
2017-09-12T09:18:46.052Z,220
2017-09-12T09:19:46.733Z,215
2017-09-12T09:20:46.692Z,210
2017-09-12T09:21:46.076Z,220
2017-09-12T09:22:46.017Z,210
2017-09-12T09:23:46.026Z,215
2017-09-12T09:24:46.671Z,205
2017-09-12T09:25:46.002Z,225
2017-09-12T09:26:45.673Z,270
2017-09-12T09:27:46.007Z,320
2017-09-12T09:28:46.330Z,345
2017-09-12T09:29:46.680Z,365
2017-09-12T09:30:45.989Z,380
2017-09-12T09:31:54.202Z,380
2017-09-12T09:32:45.969Z,380
2017-09-12T09:33:45.961Z,405
2017-09-12T09:34:45.956Z,415
2017-09-12T09:35:45.961Z,425
2017-09-12T09:36:45.950Z,405
2017-09-12T09:37:45.964Z,390
2017-09-12T09:38:46.260Z,375
2017-09-12T09:39:45.927Z,375
2017-09-12T09:40:45.934Z,385
2017-09-12T09:41:45.935Z,405
2017-09-12T09:42:45.915Z,415
2017-09-12T09:43:46.249Z,380
2017-09-12T09:44:45.572Z,345
2017-09-12T09:45:45.913Z,325
2017-09-12T09:46:45.564Z,315
2017-09-12T09:47:46.295Z,305
2017-09-12T09:48:46.211Z,315
2017-09-12T09:49:46.223Z,335
2017-09-12T09:50:46.526Z,340
2017-09-12T09:51:45.866Z,290
2017-09-12T09:52:45.870Z,240
2017-09-12T09:53:45.526Z,250
2017-09-12T09:54:45.537Z,260
2017-09-12T09:55:46.185Z,260
2017-09-12T09:56:46.194Z,250
2017-09-12T09:57:45.506Z,240
2017-09-12T09:58:45.838Z,245
2017-09-12T09:59:45.824Z,295
2017-09-12T10:00:45.489Z,305
2017-09-12T10:01:46.149Z,285
2017-09-12T10:02:45.502Z,275
2017-09-12T10:03:45.473Z,285
2017-09-12T10:04:45.801Z,305
2017-09-12T10:05:45.790Z,310
2017-09-12T10:06:46.520Z,315
2017-09-12T10:07:46.104Z,315
2017-09-12T10:08:45.445Z,305
2017-09-12T10:09:45.793Z,295
2017-09-12T10:10:45.451Z,290
2017-09-12T10:11:45.759Z,305
2017-09-12T10:12:45.754Z,305
2017-09-12T10:13:46.438Z,300
2017-09-12T10:14:45.774Z,300
2017-09-12T10:15:45.404Z,315
2017-09-12T10:16:45.400Z,310
2017-09-12T10:17:45.394Z,310
2017-09-12T10:18:46.083Z,325
2017-09-12T10:19:45.708Z,340
2017-09-12T10:20:45.774Z,325
2017-09-12T10:21:46.037Z,325
2017-09-12T10:22:45.735Z,355
2017-09-12T10:23:45.707Z,400
2017-09-12T10:24:45.687Z,420
2017-09-12T10:25:46.009Z,440
2017-09-12T10:26:46.064Z,450
2017-09-12T10:27:46.019Z,455
2017-09-12T10:28:45.692Z,455
2017-09-12T10:29:45.328Z,445
2017-09-12T10:30:45.979Z,440
2017-09-12T10:31:46.318Z,440
2017-09-12T10:32:46.299Z,420
2017-09-12T10:33:45.982Z,410
2017-09-12T10:34:45.642Z,415
2017-09-12T10:35:45.958Z,415
2017-09-12T10:36:45.301Z,400
2017-09-12T10:37:45.954Z,375
2017-09-12T10:38:45.964Z,365
2017-09-12T10:39:45.629Z,365
2017-09-12T10:40:45.640Z,355
2017-09-12T10:41:45.599Z,340
2017-09-12T10:42:45.589Z,370
2017-09-12T10:43:45.590Z,380
2017-09-12T10:44:45.581Z,385
2017-09-12T10:45:45.576Z,375
2017-09-12T10:46:46.235Z,375
2017-09-12T10:47:45.576Z,380
2017-09-12T10:48:45.238Z,410
2017-09-12T10:49:46.235Z,430
2017-09-12T10:50:45.568Z,420
2017-09-12T10:51:45.548Z,385
2017-09-12T10:52:45.547Z,320
2017-09-12T10:53:45.889Z,255
2017-09-12T10:54:45.552Z,225
2017-09-12T10:55:45.529Z,210
2017-09-12T10:56:45.520Z,220
2017-09-12T10:57:45.918Z,240
2017-09-12T10:58:45.542Z,220
2017-09-12T10:59:45.185Z,195
2017-09-12T11:00:45.853Z,175
2017-09-12T11:01:45.497Z,180
2017-09-12T11:02:45.843Z,185
2017-09-12T11:03:45.823Z,205
2017-09-12T11:04:45.520Z,215
2017-09-12T11:05:45.164Z,210
2017-09-12T11:06:45.481Z,200
2017-09-12T11:07:45.489Z,205
2017-09-12T11:08:46.162Z,215
2017-09-12T11:09:45.135Z,225
2017-09-12T11:10:45.782Z,255
2017-09-12T11:11:45.815Z,295
2017-09-12T11:12:45.134Z,340
2017-09-12T11:13:45.793Z,375
2017-09-12T11:14:45.431Z,395
2017-09-12T11:15:45.789Z,420
2017-09-12T11:16:45.441Z,440
2017-09-12T11:17:45.103Z,460
2017-09-12T11:18:45.419Z,480
2017-09-12T11:19:45.408Z,475
2017-09-12T11:20:45.740Z,445
2017-09-12T11:21:45.141Z,410
2017-09-12T11:22:45.082Z,385
2017-09-12T11:23:46.735Z,395
2017-09-12T11:24:45.403Z,415
2017-09-12T11:25:46.059Z,435
2017-09-12T11:26:45.723Z,425
2017-09-12T11:27:45.697Z,445
2017-09-12T11:28:45.729Z,465
2017-09-12T11:29:45.702Z,470
2017-09-12T11:30:45.689Z,480
2017-09-12T11:31:45.067Z,480
2017-09-12T11:32:45.025Z,455
2017-09-12T11:33:45.014Z,440
2017-09-12T11:34:45.669Z,445
2017-09-12T11:35:45.341Z,450
2017-09-12T11:36:45.329Z,455
2017-09-12T11:37:45.370Z,455
2017-09-12T11:38:45.346Z,475
2017-09-12T11:39:45.344Z,470
2017-09-12T11:40:45.019Z,440
2017-09-12T11:41:45.327Z,410
2017-09-12T11:42:45.337Z,370
2017-09-12T11:43:45.671Z,365
2017-09-12T11:44:44.984Z,340
2017-09-12T11:45:45.666Z,360
2017-09-12T11:46:44.993Z,365
2017-09-12T11:47:45.625Z,365
2017-09-12T11:48:45.644Z,400
2017-09-12T11:49:45.636Z,425
2017-09-12T11:50:45.287Z,380
2017-09-12T11:51:45.647Z,370
2017-09-12T11:52:45.616Z,395
2017-09-12T11:53:46.271Z,425
2017-09-12T11:54:45.627Z,420
2017-09-12T11:55:45.589Z,400
2017-09-12T11:56:45.609Z,380
2017-09-12T11:57:45.575Z,385
2017-09-12T11:58:45.910Z,385
2017-09-12T11:59:45.251Z,385
2017-09-12T12:00:44.935Z,395
2017-09-12T12:01:45.578Z,385
2017-09-12T12:02:45.255Z,395
2017-09-12T12:03:45.763Z,385
2017-09-12T12:04:45.266Z,385
2017-09-12T12:05:45.893Z,395
2017-09-12T12:06:45.541Z,405
2017-09-12T12:07:45.213Z,420
2017-09-12T12:08:45.552Z,410
2017-09-12T12:09:45.209Z,405
2017-09-12T12:10:49.848Z,395
2017-09-12T12:11:45.211Z,395
2017-09-12T12:12:44.867Z,395
2017-09-12T12:13:45.533Z,395
2017-09-12T12:14:45.189Z,400
2017-09-12T12:15:45.883Z,395
2017-09-12T12:16:45.534Z,430
2017-09-12T12:17:45.206Z,430
2017-09-12T12:18:45.530Z,410
2017-09-12T12:19:45.194Z,390
2017-09-12T12:20:45.192Z,380
2017-09-12T12:21:44.862Z,370
2017-09-12T12:22:45.526Z,370
2017-09-12T12:23:45.488Z,375
2017-09-12T12:24:45.167Z,385
2017-09-12T12:25:45.159Z,385
2017-09-12T12:26:45.184Z,400
2017-09-12T12:27:45.817Z,405
2017-09-12T12:28:45.135Z,400
2017-09-12T12:29:45.148Z,390
2017-09-12T12:30:44.836Z,350
2017-09-12T12:31:45.150Z,320
2017-09-12T12:32:45.465Z,330
2017-09-12T12:33:45.135Z,315
2017-09-12T12:34:45.140Z,320
2017-09-12T12:35:45.111Z,325
2017-09-12T12:36:45.436Z,355
2017-09-12T12:37:45.121Z,320
2017-09-12T12:38:45.429Z,325
2017-09-12T12:39:45.442Z,340
2017-09-12T12:40:45.114Z,350
2017-09-12T12:41:45.094Z,380
2017-09-12T12:42:45.781Z,445
2017-09-12T12:43:45.768Z,480
2017-09-12T12:44:45.608Z,475
2017-09-12T12:45:45.405Z,455
2017-09-12T12:46:44.755Z,415
2017-09-12T12:47:45.064Z,370
2017-09-12T12:48:45.740Z,330
2017-09-12T12:49:45.058Z,315
2017-09-12T12:50:45.740Z,325
2017-09-12T12:51:45.058Z,335
2017-09-12T12:52:46.361Z,360
2017-09-12T12:53:45.052Z,365
2017-09-12T12:54:44.708Z,380
2017-09-12T12:55:45.693Z,365
2017-09-12T12:56:44.703Z,330
2017-09-12T12:57:44.700Z,290
2017-09-12T12:58:45.021Z,260
2017-09-12T12:59:45.018Z,245
2017-09-12T13:00:45.690Z,255
2017-09-12T13:01:45.010Z,245
2017-09-12T13:02:45.344Z,235
2017-09-12T13:03:45.016Z,240
2017-09-12T13:04:45.675Z,230
2017-09-12T13:05:44.704Z,205
2017-09-12T13:06:45.039Z,170
2017-09-12T13:07:45.026Z,150
2017-09-12T13:08:45.656Z,140
2017-09-12T13:09:45.303Z,130
2017-09-12T13:10:45.017Z,125
2017-09-12T13:11:44.671Z,120
2017-09-12T13:12:45.301Z,110
2017-09-12T13:13:44.652Z,90
2017-09-12T13:14:44.969Z,75
2017-09-12T13:15:45.294Z,55
2017-09-12T13:16:44.947Z,40
2017-09-12T13:17:45.287Z,40
2017-09-12T13:18:45.183Z,40
2017-09-12T13:19:45.259Z,50
2017-09-12T13:20:44.603Z,70
2017-09-12T13:21:44.920Z,75
2017-09-12T13:22:44.915Z,75
2017-09-12T13:23:45.247Z,80
2017-09-12T13:24:44.910Z,85
2017-09-12T13:25:44.937Z,95
2017-09-12T13:26:44.907Z,110
2017-09-12T13:27:45.257Z,130
2017-09-12T13:28:44.886Z,155
2017-09-12T13:29:46.293Z,175
2017-09-12T13:30:44.893Z,195
2017-09-12T13:31:44.878Z,225
2017-09-12T13:32:44.571Z,250
2017-09-12T13:33:45.908Z,275
2017-09-12T13:34:44.868Z,260
2017-09-12T13:35:44.512Z,320
2017-09-12T13:36:44.833Z,325
2017-09-12T13:37:44.828Z,325
2017-09-12T13:38:45.196Z,325
2017-09-12T13:39:44.811Z,325
2017-09-12T13:40:45.154Z,335
2017-09-12T13:41:45.148Z,350
2017-09-12T13:42:44.794Z,375
2017-09-12T13:43:45.119Z,380
2017-09-12T13:44:44.449Z,380
2017-09-12T13:45:44.486Z,360
2017-09-12T13:46:44.768Z,355
2017-09-12T13:47:45.103Z,350
2017-09-12T13:48:44.787Z,355
2017-09-12T13:49:45.106Z,360
2017-09-12T13:50:45.069Z,360
2017-09-12T13:51:44.748Z,360
2017-09-12T13:52:44.733Z,350
2017-09-12T13:53:45.064Z,355
2017-09-12T13:54:45.094Z,325
2017-09-12T13:55:44.709Z,285
2017-09-12T13:56:45.060Z,255
2017-09-12T13:57:45.378Z,240
2017-09-12T13:58:44.358Z,245
2017-09-12T13:59:44.686Z,250
2017-09-12T14:00:44.690Z,250
2017-09-12T14:01:44.692Z,250
2017-09-12T14:02:45.001Z,245
2017-09-12T14:03:45.013Z,260
2017-09-12T14:04:44.337Z,280
2017-09-12T14:05:45.006Z,295
2017-09-12T14:06:44.970Z,295
2017-09-12T14:07:44.642Z,280
2017-09-12T14:08:45.000Z,260